Time;durP1;ratioP1;P1;durP2;ratioP2;P2;SDS_P1;SDS_P2;PMS_P1;PMS_P2;Temp;Humidity;BMP_temperature;BMP_pressure;BME280_temperature;BME280_humidity;BME280_pressure;Samples;Min_cycle;Max_cycle;Signal;HPM_P1;HPM_P2
2022/04/03 00:00:40;;;;;;;2.13;0.70;;;;;;;;;;4904609;29;20549;-69
2022/04/03 00:03:09;;;;;;;0.93;0.70;;;;;;;;;;4904940;29;20056;-71
2022/04/03 00:05:38;;;;;;;4.50;0.90;;;;;;;;;;4900516;29;20058;-70
2022/04/03 00:08:08;;;;;;;1.65;0.80;;;;;;;;;;4906453;29;20063;-70
2022/04/03 00:10:35;;;;;;;1.38;0.82;;;;;;;;;;4906159;29;20068;-69
2022/04/03 00:13:02;;;;;;;1.17;0.65;;;;;;;;;;4904127;29;20075;-66
2022/04/03 00:15:28;;;;;;;0.70;0.70;;;;;;;;;;4901626;29;20154;-71
2022/04/03 00:17:55;;;;;;;1.42;0.70;;;;;;;;;;4904271;29;20060;-69
2022/04/03 00:20:21;;;;;;;0.80;0.60;;;;;;;;;;4905763;29;20052;-70
2022/04/03 00:22:50;;;;;;;2.60;0.80;;;;;;;;;;4900152;29;20056;-70
2022/04/03 00:25:18;;;;;;;2.00;0.70;;;;;;;;;;4903812;29;20048;-70
2022/04/03 00:27:46;;;;;;;1.23;0.60;;;;;;;;;;4906318;29;20040;-70
2022/04/03 00:30:12;;;;;;;0.82;0.63;;;;;;;;;;4907197;29;20036;-68
2022/04/03 00:32:39;;;;;;;1.67;0.77;;;;;;;;;;4906486;29;20063;-71
2022/04/03 00:35:05;;;;;;;3.42;1.00;;;;;;;;;;4904263;29;20056;-69
2022/04/03 00:37:32;;;;;;;1.73;0.77;;;;;;;;;;4905051;29;20075;-70
2022/04/03 00:39:58;;;;;;;1.27;0.80;;;;;;;;;;4906635;29;20406;-70
2022/04/03 00:42:25;;;;;;;0.80;0.60;;;;;;;;;;4904052;29;20059;-69
2022/04/03 00:44:51;;;;;;;3.75;0.80;;;;;;;;;;4906416;29;20462;-70
2022/04/03 00:47:18;;;;;;;2.17;0.80;;;;;;;;;;4904341;29;20051;-68
2022/04/03 00:49:44;;;;;;;0.55;0.55;;;;;;;;;;4906653;29;20056;-71
2022/04/03 00:52:10;;;;;;;1.05;0.60;;;;;;;;;;4906712;29;20048;-70
2022/04/03 00:54:36;;;;;;;0.98;0.70;;;;;;;;;;4906035;29;20060;-69
2022/04/03 00:57:06;;;;;;;2.28;0.77;;;;;;;;;;4902699;29;20063;-69
2022/04/03 00:59:35;;;;;;;1.45;0.70;;;;;;;;;;4906218;29;20521;-68
2022/04/03 01:02:02;;;;;;;0.75;0.60;;;;;;;;;;4904794;29;20481;-71
2022/04/03 01:04:28;;;;;;;2.10;0.90;;;;;;;;;;4904464;29;20052;-68
2022/04/03 01:06:57;;;;;;;0.68;0.50;;;;;;;;;;4903341;29;20059;-70
2022/04/03 01:09:23;;;;;;;0.77;0.60;;;;;;;;;;4905802;29;20040;-69
2022/04/03 01:11:49;;;;;;;1.42;0.77;;;;;;;;;;4905122;29;20059;-70
2022/04/03 01:14:39;;;;;;;2.70;0.73;;;;;;;;;;4904793;29;20044;-69
2022/04/03 01:17:07;;;;;;;0.82;0.68;;;;;;;;;;4902579;29;20068;-69
2022/04/03 01:19:33;;;;;;;2.45;0.80;;;;;;;;;;4902306;29;20413;-68
2022/04/03 01:21:59;;;;;;;1.17;0.50;;;;;;;;;;4903606;29;20537;-70
2022/04/03 01:24:26;;;;;;;1.05;0.63;;;;;;;;;;4904845;29;20051;-69
2022/04/03 01:26:53;;;;;;;1.23;0.60;;;;;;;;;;4901533;29;20056;-70
2022/04/03 01:29:19;;;;;;;1.23;0.70;;;;;;;;;;4903722;29;20048;-69
2022/04/03 01:31:47;;;;;;;3.40;0.70;;;;;;;;;;4904964;29;20119;-70
2022/04/03 01:34:17;;;;;;;0.60;0.60;;;;;;;;;;4905141;29;20060;-70
2022/04/03 01:36:43;;;;;;;1.85;0.60;;;;;;;;;;4902823;29;20166;-70
2022/04/03 01:39:10;;;;;;;1.38;0.80;;;;;;;;;;4904041;29;20056;-70
2022/04/03 01:41:41;;;;;;;1.30;0.75;;;;;;;;;;4903997;29;20518;-69
2022/04/03 01:44:08;;;;;;;1.48;0.70;;;;;;;;;;4901294;29;20469;-70
2022/04/03 01:46:36;;;;;;;3.13;0.80;;;;;;;;;;4901091;29;20056;-70
2022/04/03 01:49:04;;;;;;;3.28;0.65;;;;;;;;;;4903678;29;20442;-68
2022/04/03 01:51:30;;;;;;;0.73;0.60;;;;;;;;;;4903749;29;20119;-69
2022/04/03 01:53:57;;;;;;;0.52;0.50;;;;;;;;;;4902522;29;20036;-70
2022/04/03 01:56:23;;;;;;;2.72;0.75;;;;;;;;;;4899890;29;20528;-70
2022/04/03 01:58:48;;;;;;;2.75;0.65;;;;;;;;;;4903957;29;20146;-70
2022/04/03 02:01:14;;;;;;;2.08;0.82;;;;;;;;;;4904232;29;20051;-69
2022/04/03 02:03:40;;;;;;;1.35;0.70;;;;;;;;;;4902068;29;20056;-69
2022/04/03 02:06:06;;;;;;;2.78;0.90;;;;;;;;;;4895851;29;20174;-69
2022/04/03 02:08:32;;;;;;;1.88;0.65;;;;;;;;;;4901775;29;20064;-67
2022/04/03 02:10:58;;;;;;;2.42;0.80;;;;;;;;;;4902189;29;21063;-69
2022/04/03 02:13:24;;;;;;;1.20;0.80;;;;;;;;;;4902614;29;20082;-68
2022/04/03 02:15:51;;;;;;;3.22;0.75;;;;;;;;;;4899591;29;20048;-69
2022/04/03 02:18:17;;;;;;;1.92;1.20;;;;;;;;;;4902493;29;20063;-70
2022/04/03 02:20:43;;;;;;;2.97;1.00;;;;;;;;;;4902474;29;20131;-70
2022/04/03 02:23:10;;;;;;;2.53;0.90;;;;;;;;;;4902469;29;20059;-68
2022/04/03 02:25:37;;;;;;;1.08;0.75;;;;;;;;;;4899786;29;20502;-69
2022/04/03 02:28:04;;;;;;;2.58;0.80;;;;;;;;;;4899304;29;20063;-71
2022/04/03 02:30:30;;;;;;;1.13;0.77;;;;;;;;;;4903544;29;20482;-69
2022/04/03 02:32:56;;;;;;;1.08;0.93;;;;;;;;;;4900946;29;20063;-69
2022/04/03 02:35:22;;;;;;;2.90;0.88;;;;;;;;;;4899796;29;20048;-69
2022/04/03 02:37:48;;;;;;;1.58;0.90;;;;;;;;;;4904807;29;20615;-71
2022/04/03 02:40:16;;;;;;;1.30;0.73;;;;;;;;;;4902229;29;20044;-69
2022/04/03 02:42:43;;;;;;;0.88;0.70;;;;;;;;;;4902173;29;20060;-69
2022/04/03 02:45:10;;;;;;;2.72;0.80;;;;;;;;;;4899703;29;20060;-69
2022/04/03 02:47:36;;;;;;;2.33;0.60;;;;;;;;;;4903014;29;20083;-70
2022/04/03 02:50:04;;;;;;;0.90;0.70;;;;;;;;;;4904409;29;20111;-69
2022/04/03 02:52:30;;;;;;;2.20;0.60;;;;;;;;;;4903610;29;20064;-70
2022/04/03 02:54:57;;;;;;;2.20;0.65;;;;;;;;;;4903520;29;20036;-70
2022/04/03 02:57:23;;;;;;;2.17;0.88;;;;;;;;;;4897334;29;20059;-68
2022/04/03 02:59:49;;;;;;;0.85;0.50;;;;;;;;;;4903022;29;20055;-69
2022/04/03 03:02:15;;;;;;;1.58;0.82;;;;;;;;;;4901259;29;20051;-68
2022/04/03 03:04:40;;;;;;;2.08;0.70;;;;;;;;;;4902820;29;20498;-69
2022/04/03 03:07:09;;;;;;;1.00;0.60;;;;;;;;;;4901433;29;20143;-70
2022/04/03 03:09:35;;;;;;;0.88;0.60;;;;;;;;;;4903844;29;20059;-68
2022/04/03 03:12:01;;;;;;;0.98;0.70;;;;;;;;;;4903737;29;20102;-69
2022/04/03 03:14:28;;;;;;;1.67;0.70;;;;;;;;;;4902570;29;20056;-71
2022/04/03 03:16:54;;;;;;;1.10;0.80;;;;;;;;;;4899176;29;20123;-70
2022/04/03 03:19:21;;;;;;;1.77;0.73;;;;;;;;;;4901940;29;20148;-69
2022/04/03 03:21:47;;;;;;;0.85;0.52;;;;;;;;;;4890007;29;20067;-69
2022/04/03 03:24:12;;;;;;;1.85;0.80;;;;;;;;;;4903875;29;20451;-69
2022/04/03 03:26:38;;;;;;;1.20;0.50;;;;;;;;;;4900212;29;20052;-68
2022/04/03 03:29:04;;;;;;;1.20;0.70;;;;;;;;;;4900878;29;20120;-70
2022/04/03 03:31:31;;;;;;;2.83;0.70;;;;;;;;;;4902435;29;20478;-70
2022/04/03 03:33:57;;;;;;;1.10;0.70;;;;;;;;;;4900023;29;20114;-70
2022/04/03 03:36:23;;;;;;;0.65;0.60;;;;;;;;;;4898401;29;20589;-69
2022/04/03 03:38:49;;;;;;;1.20;0.60;;;;;;;;;;4900516;29;20087;-69
2022/04/03 03:41:15;;;;;;;3.15;0.65;;;;;;;;;;4902096;29;20231;-69
2022/04/03 03:43:41;;;;;;;2.17;0.82;;;;;;;;;;4902232;29;20342;-69
2022/04/03 03:46:08;;;;;;;1.52;0.70;;;;;;;;;;4896818;29;20401;-69
2022/04/03 03:48:35;;;;;;;2.15;0.90;;;;;;;;;;4901774;29;20060;-68
2022/04/03 03:51:01;;;;;;;1.20;0.60;;;;;;;;;;4900922;29;20052;-70
2022/04/03 03:53:27;;;;;;;1.05;0.75;;;;;;;;;;4902556;29;20126;-70
2022/04/03 03:55:52;;;;;;;1.85;1.00;;;;;;;;;;4899219;29;20589;-69
2022/04/03 03:58:18;;;;;;;3.80;0.85;;;;;;;;;;4900293;29;20052;-70
2022/04/03 04:00:44;;;;;;;1.58;1.00;;;;;;;;;;4903213;29;20530;-70
2022/04/03 04:03:10;;;;;;;4.70;0.70;;;;;;;;;;4901796;29;20574;-68
2022/04/03 04:05:36;;;;;;;1.83;0.57;;;;;;;;;;4901079;29;20391;-70
2022/04/03 04:08:02;;;;;;;1.58;0.82;;;;;;;;;;4903877;29;20091;-69
2022/04/03 04:10:28;;;;;;;1.85;0.80;;;;;;;;;;4906702;29;20136;-69
2022/04/03 04:12:54;;;;;;;5.65;0.82;;;;;;;;;;4905988;29;20417;-70
2022/04/03 04:15:20;;;;;;;2.03;0.73;;;;;;;;;;4904228;29;20052;-70
2022/04/03 04:17:47;;;;;;;2.90;1.00;;;;;;;;;;4904983;29;20424;-69
2022/04/03 04:20:16;;;;;;;3.88;0.90;;;;;;;;;;4906607;29;20060;-70
2022/04/03 04:22:43;;;;;;;2.60;1.10;;;;;;;;;;4905895;29;20060;-69
2022/04/03 04:25:12;;;;;;;2.83;1.20;;;;;;;;;;4903325;29;20056;-69
2022/04/03 04:27:38;;;;;;;2.50;1.20;;;;;;;;;;4904942;29;20306;-69
2022/04/03 04:30:05;;;;;;;2.20;1.15;;;;;;;;;;4905696;29;20068;-68
2022/04/03 04:32:32;;;;;;;4.80;1.30;;;;;;;;;;4904642;29;20199;-68
2022/04/03 04:34:58;;;;;;;7.30;1.30;;;;;;;;;;4904913;29;20044;-71
2022/04/03 04:37:24;;;;;;;4.70;2.25;;;;;;;;;;4904086;29;20099;-69
2022/04/03 04:39:51;;;;;;;5.00;1.58;;;;;;;;;;4906414;29;20044;-68
2022/04/03 04:42:17;;;;;;;3.00;1.30;;;;;;;;;;4904454;29;20087;-70
2022/04/03 04:44:43;;;;;;;7.35;1.55;;;;;;;;;;4906920;29;20551;-70
2022/04/03 04:47:09;;;;;;;2.80;1.75;;;;;;;;;;4901755;29;20079;-69
2022/04/03 04:49:36;;;;;;;3.72;1.60;;;;;;;;;;4905172;29;20533;-69
2022/04/03 04:52:01;;;;;;;6.72;1.73;;;;;;;;;;4906719;29;20059;-70
2022/04/03 04:54:29;;;;;;;2.92;1.50;;;;;;;;;;4903992;29;20375;-68
2022/04/03 04:56:55;;;;;;;5.25;1.70;;;;;;;;;;4901621;29;20080;-70
2022/04/03 04:59:21;;;;;;;6.57;1.73;;;;;;;;;;4904465;29;20240;-69
2022/04/03 05:01:47;;;;;;;3.00;1.52;;;;;;;;;;4905139;29;20263;-70
2022/04/03 05:04:13;;;;;;;2.90;1.40;;;;;;;;;;4904587;29;20958;-69
2022/04/03 05:06:39;;;;;;;6.57;1.75;;;;;;;;;;4903589;29;20076;-69
2022/04/03 05:09:05;;;;;;;3.47;1.75;;;;;;;;;;4906106;29;20075;-70
2022/04/03 05:11:33;;;;;;;3.63;1.60;;;;;;;;;;4905506;29;20431;-68
2022/04/03 05:13:59;;;;;;;3.42;2.03;;;;;;;;;;4905044;29;20059;-69
2022/04/03 05:16:25;;;;;;;5.63;1.70;;;;;;;;;;4897852;29;20040;-71
2022/04/03 05:18:52;;;;;;;4.68;1.70;;;;;;;;;;4886982;29;20048;-69
2022/04/03 05:21:18;;;;;;;3.13;1.42;;;;;;;;;;4906380;29;20040;-70
2022/04/03 05:23:44;;;;;;;5.22;1.65;;;;;;;;;;4906281;29;20063;-69
2022/04/03 05:26:10;;;;;;;5.45;1.83;;;;;;;;;;4902202;29;20056;-68
2022/04/03 05:28:37;;;;;;;5.20;1.42;;;;;;;;;;4901334;29;20064;-71
2022/04/03 05:31:03;;;;;;;4.10;1.63;;;;;;;;;;4903808;29;20044;-69
2022/04/03 05:33:29;;;;;;;3.20;1.60;;;;;;;;;;4901781;29;20115;-69
2022/04/03 05:35:55;;;;;;;3.83;1.58;;;;;;;;;;4901388;29;20044;-68
2022/04/03 05:38:21;;;;;;;5.03;1.45;;;;;;;;;;4904959;29;20517;-69
2022/04/03 05:40:47;;;;;;;5.28;1.70;;;;;;;;;;4903298;29;20528;-68
2022/04/03 05:43:12;;;;;;;3.20;1.63;;;;;;;;;;4902446;29;20047;-68
2022/04/03 05:45:38;;;;;;;3.40;1.50;;;;;;;;;;4897815;29;21101;-68
2022/04/03 05:48:08;;;;;;;1.75;1.33;;;;;;;;;;4903714;29;20556;-69
2022/04/03 05:50:35;;;;;;;3.47;1.42;;;;;;;;;;4904805;29;20498;-70
2022/04/03 05:53:01;;;;;;;1.75;1.23;;;;;;;;;;4902146;29;20565;-68
2022/04/03 05:55:28;;;;;;;3.45;1.40;;;;;;;;;;4901771;29;20174;-71
2022/04/03 05:57:54;;;;;;;3.20;1.30;;;;;;;;;;4904436;29;20076;-69
2022/04/03 06:00:22;;;;;;;10.27;2.05;;;;;;;;;;4902995;29;20087;-67
2022/04/03 06:02:49;;;;;;;3.42;1.45;;;;;;;;;;4902709;29;20060;-70
2022/04/03 06:05:17;;;;;;;5.07;1.60;;;;;;;;;;4900737;29;20451;-68
2022/04/03 06:07:43;;;;;;;2.38;1.48;;;;;;;;;;4905229;29;20059;-69
2022/04/03 06:10:09;;;;;;;4.80;1.52;;;;;;;;;;4885971;29;20071;-69
2022/04/03 06:12:36;;;;;;;2.17;1.35;;;;;;;;;;4901364;29;20056;-69
2022/04/03 06:15:02;;;;;;;5.38;1.50;;;;;;;;;;4900035;29;20059;-70
2022/04/03 06:17:28;;;;;;;4.72;1.67;;;;;;;;;;4901621;29;20049;-71
2022/04/03 06:19:54;;;;;;;3.83;1.50;;;;;;;;;;4900295;29;20051;-70
2022/04/03 06:22:20;;;;;;;7.05;1.95;;;;;;;;;;4904499;29;20083;-68
2022/04/03 06:24:46;;;;;;;8.95;2.35;;;;;;;;;;4897993;29;20048;-70
2022/04/03 06:27:11;;;;;;;6.97;2.20;;;;;;;;;;4901001;29;20059;-70
2022/04/03 06:29:37;;;;;;;9.80;2.20;;;;;;;;;;4901610;29;20056;-68
2022/04/03 06:32:04;;;;;;;5.72;1.90;;;;;;;;;;4903485;29;20580;-68
2022/04/03 06:34:29;;;;;;;5.88;2.17;;;;;;;;;;4899455;29;20258;-68
2022/04/03 06:36:55;;;;;;;3.35;2.05;;;;;;;;;;4897877;29;20302;-72
2022/04/03 06:39:21;;;;;;;2.30;1.50;;;;;;;;;;4904211;29;20051;-70
2022/04/03 06:41:47;;;;;;;3.17;1.65;;;;;;;;;;4884267;29;20413;-70
2022/04/03 06:44:13;;;;;;;4.07;1.60;;;;;;;;;;4904753;29;20605;-71
2022/04/03 06:46:39;;;;;;;4.78;1.75;;;;;;;;;;4899857;29;20044;-70
2022/04/03 06:49:05;;;;;;;2.20;1.55;;;;;;;;;;4899584;29;20478;-70
2022/04/03 06:51:30;;;;;;;3.53;1.83;;;;;;;;;;4901441;29;20055;-70
2022/04/03 06:53:56;;;;;;;2.33;1.23;;;;;;;;;;4899717;29;20044;-70
2022/04/03 06:56:22;;;;;;;3.63;1.40;;;;;;;;;;4900436;29;20054;-71
2022/04/03 06:58:48;;;;;;;1.98;1.33;;;;;;;;;;4902497;29;20048;-71
2022/04/03 07:01:14;;;;;;;3.72;1.40;;;;;;;;;;4902828;29;20419;-71
2022/04/03 07:03:40;;;;;;;3.45;1.40;;;;;;;;;;4901622;29;20047;-69
2022/04/03 07:06:05;;;;;;;2.45;1.42;;;;;;;;;;4902030;29;20048;-71
2022/04/03 07:08:32;;;;;;;2.85;1.48;;;;;;;;;;4904305;29;20492;-71
2022/04/03 07:10:57;;;;;;;2.55;1.55;;;;;;;;;;4899356;29;20056;-70
2022/04/03 07:13:23;;;;;;;3.05;1.45;;;;;;;;;;4901166;29;20055;-70
2022/04/03 07:15:49;;;;;;;2.63;1.50;;;;;;;;;;4900670;29;20493;-70
2022/04/03 07:18:16;;;;;;;3.72;1.52;;;;;;;;;;4900813;29;20094;-69
2022/04/03 07:20:46;;;;;;;1.70;1.20;;;;;;;;;;4902329;29;20347;-69
2022/04/03 07:23:12;;;;;;;3.90;1.50;;;;;;;;;;4902956;29;20056;-69
2022/04/03 07:25:38;;;;;;;7.50;1.77;;;;;;;;;;4899384;29;20067;-71
2022/04/03 07:28:04;;;;;;;2.47;1.42;;;;;;;;;;4899824;29;20417;-71
2022/04/03 07:30:30;;;;;;;3.25;1.50;;;;;;;;;;4902513;29;20541;-71
2022/04/03 07:32:56;;;;;;;4.63;1.55;;;;;;;;;;4898351;29;20048;-70
2022/04/03 07:35:22;;;;;;;2.35;1.27;;;;;;;;;;4896512;29;20048;-70
2022/04/03 07:37:48;;;;;;;1.52;1.20;;;;;;;;;;4903568;29;20056;-70
2022/04/03 07:40:14;;;;;;;2.58;1.30;;;;;;;;;;4903748;29;20075;-70
2022/04/03 07:42:40;;;;;;;5.22;1.40;;;;;;;;;;4901309;29;20056;-70
2022/04/03 07:45:06;;;;;;;2.03;1.30;;;;;;;;;;4901613;29;20056;-72
2022/04/03 07:47:33;;;;;;;3.17;1.35;;;;;;;;;;4904631;29;20499;-73
2022/04/03 07:49:59;;;;;;;9.30;2.30;;;;;;;;;;4906363;29;20776;-70
2022/04/03 07:52:25;;;;;;;4.90;1.42;;;;;;;;;;4906967;29;20044;-72
2022/04/03 07:54:51;;;;;;;1.75;1.20;;;;;;;;;;4905003;29;20163;-72
2022/04/03 07:57:18;;;;;;;4.50;1.30;;;;;;;;;;4903631;29;20450;-71
2022/04/03 07:59:44;;;;;;;2.05;1.27;;;;;;;;;;4905881;29;20541;-72
2022/04/03 08:02:10;;;;;;;2.10;1.08;;;;;;;;;;4905700;29;20056;-71
2022/04/03 08:04:36;;;;;;;5.25;1.05;;;;;;;;;;4905608;29;20096;-71
2022/04/03 08:07:02;;;;;;;5.30;1.30;;;;;;;;;;4898654;29;20104;-71
2022/04/03 08:09:28;;;;;;;3.13;1.10;;;;;;;;;;4906767;29;20361;-71
2022/04/03 08:11:54;;;;;;;2.08;1.00;;;;;;;;;;4904376;29;20052;-71
2022/04/03 08:14:20;;;;;;;3.65;1.40;;;;;;;;;;4903868;29;20394;-71
2022/04/03 08:16:45;;;;;;;1.70;1.15;;;;;;;;;;4905205;29;20122;-69
2022/04/03 08:19:12;;;;;;;2.85;1.10;;;;;;;;;;4908000;29;20203;-71
2022/04/03 08:21:37;;;;;;;3.75;1.50;;;;;;;;;;4909413;29;20060;-72
2022/04/03 08:24:03;;;;;;;3.78;1.40;;;;;;;;;;4906937;29;20064;-70
2022/04/03 08:26:29;;;;;;;2.15;1.02;;;;;;;;;;4902700;29;20048;-72
2022/04/03 08:28:56;;;;;;;3.72;1.40;;;;;;;;;;4906422;29;20048;-71
2022/04/03 08:31:25;;;;;;;2.25;1.10;;;;;;;;;;4904276;29;20103;-70
2022/04/03 08:33:51;;;;;;;2.45;1.20;;;;;;;;;;4905780;29;20060;-71
2022/04/03 08:36:18;;;;;;;2.55;1.20;;;;;;;;;;4901951;29;20063;-71
2022/04/03 08:38:43;;;;;;;4.43;1.00;;;;;;;;;;4906313;29;20657;-70
2022/04/03 08:41:10;;;;;;;2.42;0.70;;;;;;;;;;4903511;29;20054;-70
2022/04/03 08:43:37;;;;;;;2.00;1.02;;;;;;;;;;4902301;29;20068;-69
2022/04/03 08:46:06;;;;;;;1.20;0.82;;;;;;;;;;4903666;29;20122;-71
2022/04/03 08:48:32;;;;;;;3.75;1.52;;;;;;;;;;4905625;29;20058;-70
2022/04/03 08:51:01;;;;;;;1.30;0.80;;;;;;;;;;4907016;29;20040;-70
2022/04/03 08:53:30;;;;;;;2.50;0.90;;;;;;;;;;4907700;29;20064;-72
2022/04/03 08:55:56;;;;;;;1.00;0.90;;;;;;;;;;4903676;29;20646;-70
2022/04/03 08:58:23;;;;;;;0.90;0.70;;;;;;;;;;4907128;29;20446;-73
2022/04/03 09:00:49;;;;;;;1.15;1.00;;;;;;;;;;4906053;29;20044;-72
2022/04/03 09:03:15;;;;;;;3.10;1.05;;;;;;;;;;4908490;29;20063;-70
2022/04/03 09:05:43;;;;;;;2.03;1.05;;;;;;;;;;4906038;29;20048;-72
2022/04/03 09:08:10;;;;;;;1.98;0.88;;;;;;;;;;4905458;29;20422;-72
2022/04/03 09:10:37;;;;;;;2.45;1.20;;;;;;;;;;4905047;29;20119;-71
2022/04/03 09:13:03;;;;;;;5.10;1.42;;;;;;;;;;4901134;29;20048;-72
2022/04/03 09:15:31;;;;;;;2.58;1.77;;;;;;;;;;4901197;29;20059;-71
2022/04/03 09:17:59;;;;;;;2.30;1.10;;;;;;;;;;4904775;29;20494;-70
2022/04/03 09:20:30;;;;;;;3.33;1.20;;;;;;;;;;4904237;29;20067;-72
2022/04/03 09:23:07;;;;;;;2.58;1.10;;;;;;;;;;4904330;29;20048;-70
2022/04/03 09:25:36;;;;;;;1.58;1.02;;;;;;;;;;4903585;29;20139;-70
2022/04/03 09:28:05;;;;;;;3.25;0.70;;;;;;;;;;4904915;29;20047;-72
2022/04/03 09:30:33;;;;;;;1.10;0.90;;;;;;;;;;4903371;29;20067;-71
2022/04/03 09:33:00;;;;;;;1.25;0.80;;;;;;;;;;4901639;29;20056;-72
2022/04/03 09:35:28;;;;;;;2.15;0.95;;;;;;;;;;4901855;29;20091;-73
2022/04/03 09:38:14;;;;;;;1.08;0.80;;;;;;;;;;4905254;29;20380;-69
2022/04/03 09:40:44;;;;;;;1.35;0.80;;;;;;;;;;4902171;29;20060;-69
2022/04/03 09:43:38;;;;;;;1.23;1.00;;;;;;;;;;4905577;29;20084;-69
2022/04/03 09:46:06;;;;;;;1.13;0.70;;;;;;;;;;4899621;29;20056;-72
2022/04/03 09:48:43;;;;;;;1.42;0.85;;;;;;;;;;4904562;29;20114;-72
2022/04/03 09:51:09;;;;;;;1.63;1.00;;;;;;;;;;4906169;29;20160;-71
2022/04/03 09:54:01;;;;;;;2.47;0.73;;;;;;;;;;4905952;29;20411;-69
2022/04/03 09:56:34;;;;;;;4.00;1.70;;;;;;;;;;4898865;29;20486;-68
2022/04/03 09:59:06;;;;;;;2.55;1.10;;;;;;;;;;4903389;29;20047;-67
2022/04/03 10:01:38;;;;;;;2.00;1.17;;;;;;;;;;4903850;29;20052;-67
2022/04/03 10:04:14;;;;;;;3.15;0.90;;;;;;;;;;4903404;29;20532;-71
2022/04/03 10:06:42;;;;;;;2.38;1.10;;;;;;;;;;4901245;29;20086;-70
2022/04/03 10:09:11;;;;;;;2.05;0.82;;;;;;;;;;4903759;29;20066;-70
2022/04/03 10:11:41;;;;;;;3.40;0.90;;;;;;;;;;4902570;29;20419;-70
2022/04/03 10:14:14;;;;;;;2.30;0.75;;;;;;;;;;4903086;29;20118;-70
2022/04/03 10:16:40;;;;;;;1.40;0.80;;;;;;;;;;4902150;29;20158;-71
2022/04/03 10:19:06;;;;;;;1.75;0.95;;;;;;;;;;4903537;29;20063;-70
2022/04/03 10:21:59;;;;;;;2.03;0.90;;;;;;;;;;4905223;29;20107;-71
2022/04/03 10:24:28;;;;;;;2.85;1.10;;;;;;;;;;4902606;29;20056;-71
2022/04/03 10:27:04;;;;;;;3.28;0.98;;;;;;;;;;4883952;29;20056;-70
2022/04/03 10:29:40;;;;;;;3.13;1.10;;;;;;;;;;4904323;29;20064;-72
2022/04/03 10:32:07;;;;;;;1.67;1.00;;;;;;;;;;4902339;29;20048;-72
2022/04/03 10:34:49;;;;;;;3.58;1.25;;;;;;;;;;4904722;29;20321;-71
2022/04/03 10:37:31;;;;;;;2.95;1.00;;;;;;;;;;4903247;29;20488;-70
2022/04/03 10:40:07;;;;;;;1.40;0.82;;;;;;;;;;4903313;29;20490;-70
2022/04/03 10:42:34;;;;;;;2.55;1.00;;;;;;;;;;4901614;29;20147;-69
2022/04/03 10:45:11;;;;;;;1.85;0.80;;;;;;;;;;4901013;29;20044;-70
2022/04/03 10:47:39;;;;;;;2.20;1.10;;;;;;;;;;4902574;29;20058;-71
2022/04/03 10:50:07;;;;;;;1.33;0.68;;;;;;;;;;4902191;29;20415;-69
2022/04/03 10:52:36;;;;;;;3.05;0.98;;;;;;;;;;4902264;29;20052;-71
2022/04/03 10:55:20;;;;;;;2.67;1.10;;;;;;;;;;4900016;29;20399;-68
2022/04/03 10:57:48;;;;;;;2.90;1.33;;;;;;;;;;4899192;29;20068;-71
2022/04/03 11:00:14;;;;;;;2.83;0.75;;;;;;;;;;4900850;29;20048;-68
2022/04/03 11:02:41;;;;;;;2.05;1.20;;;;;;;;;;4901224;29;20064;-69
2022/04/03 11:05:26;;;;;;;3.83;1.33;;;;;;;;;;4898528;29;20075;-69
2022/04/03 11:07:53;;;;;;;1.35;0.90;;;;;;;;;;4899101;29;20055;-72
2022/04/03 11:10:45;;;;;;;1.75;0.98;;;;;;;;;;4902594;29;20063;-71
2022/04/03 11:13:13;;;;;;;3.60;1.65;;;;;;;;;;4901020;29;20056;-72
2022/04/03 11:16:04;;;;;;;5.30;1.30;;;;;;;;;;4897689;29;20052;-71
2022/04/03 11:18:30;;;;;;;3.10;1.20;;;;;;;;;;4900654;29;20052;-70
2022/04/03 11:21:26;;;;;;;4.45;1.40;;;;;;;;;;4906822;29;20048;-71
2022/04/03 11:24:02;;;;;;;2.50;1.52;;;;;;;;;;4898136;29;20056;-72
2022/04/03 11:26:29;;;;;;;4.03;1.30;;;;;;;;;;4899708;29;20064;-73
2022/04/03 11:28:55;;;;;;;3.15;1.02;;;;;;;;;;4906247;29;20387;-73
2022/04/03 11:31:22;;;;;;;1.52;1.05;;;;;;;;;;4906045;29;20067;-72
2022/04/03 11:33:48;;;;;;;2.40;1.35;;;;;;;;;;4907602;29;20151;-73
2022/04/03 11:36:17;;;;;;;3.08;1.33;;;;;;;;;;4905231;29;20044;-73
2022/04/03 11:38:46;;;;;;;6.00;1.40;;;;;;;;;;4908071;29;20122;-71
2022/04/03 11:41:31;;;;;;;2.28;1.20;;;;;;;;;;4904484;29;20135;-71
2022/04/03 11:44:00;;;;;;;4.97;1.00;;;;;;;;;;4908492;29;20059;-71
2022/04/03 11:46:28;;;;;;;3.17;1.20;;;;;;;;;;4905794;29;20525;-71
2022/04/03 11:48:54;;;;;;;1.63;0.93;;;;;;;;;;4905596;29;20051;-71
2022/04/03 11:51:22;;;;;;;4.15;1.17;;;;;;;;;;4907986;29;20052;-72
2022/04/03 11:53:59;;;;;;;3.17;1.10;;;;;;;;;;4906968;29;20080;-72
2022/04/03 11:56:29;;;;;;;2.13;1.15;;;;;;;;;;4904928;29;20079;-72
2022/04/03 11:58:57;;;;;;;3.28;1.30;;;;;;;;;;4907533;29;20498;-70
2022/04/03 12:01:29;;;;;;;1.77;1.00;;;;;;;;;;4907874;29;20143;-73
2022/04/03 12:04:05;;;;;;;1.77;1.23;;;;;;;;;;4908419;29;20059;-71
2022/04/03 12:06:33;;;;;;;2.38;1.00;;;;;;;;;;4904698;29;20098;-71
2022/04/03 12:08:59;;;;;;;2.92;1.10;;;;;;;;;;4908373;29;20083;-72
2022/04/03 12:11:30;;;;;;;5.43;1.50;;;;;;;;;;4904987;29;20147;-71
2022/04/03 12:13:58;;;;;;;2.83;1.17;;;;;;;;;;4906205;29;20090;-71
2022/04/03 12:16:31;;;;;;;14.48;1.50;;;;;;;;;;4906027;29;20123;-72
2022/04/03 12:18:59;;;;;;;2.45;1.17;;;;;;;;;;4906603;29;20056;-73
2022/04/03 12:21:41;;;;;;;1.88;1.10;;;;;;;;;;4906884;29;20687;-74
2022/04/03 12:24:14;;;;;;;1.25;0.73;;;;;;;;;;4903913;29;20135;-73
2022/04/03 12:27:08;;;;;;;2.22;0.75;;;;;;;;;;4902275;29;20413;-72
2022/04/03 12:29:35;;;;;;;4.03;1.30;;;;;;;;;;4900412;29;20052;-70
2022/04/03 12:32:10;;;;;;;1.30;0.82;;;;;;;;;;4904129;29;20135;-69
2022/04/03 12:34:42;;;;;;;2.03;1.35;;;;;;;;;;4901374;29;20063;-72
2022/04/03 12:37:09;;;;;;;4.05;1.00;;;;;;;;;;4902615;29;20556;-69
2022/04/03 12:39:44;;;;;;;2.00;1.10;;;;;;;;;;4905531;29;20058;-72
2022/04/03 12:42:31;;;;;;;3.20;0.85;;;;;;;;;;4903512;29;20052;-74
2022/04/03 12:45:03;;;;;;;2.58;0.80;;;;;;;;;;4905299;29;20243;-75
2022/04/03 12:47:32;;;;;;;2.28;0.95;;;;;;;;;;4901864;29;20402;-72
2022/04/03 12:50:12;;;;;;;2.72;0.90;;;;;;;;;;4906218;29;20096;-72
2022/04/03 12:52:48;;;;;;;0.85;0.63;;;;;;;;;;4905852;29;20474;-73
2022/04/03 13:00:55;;;;;;;1.55;0.88;;;;;;;;;;4914052;29;20493;-70
2022/04/03 13:03:28;;;;;;;1.40;0.80;;;;;;;;;;4915708;29;20048;-79
2022/04/03 13:05:55;;;;;;;1.52;0.80;;;;;;;;;;4913217;29;20044;-75
2022/04/03 13:08:21;;;;;;;2.80;0.90;;;;;;;;;;4909333;29;20155;-68
2022/04/03 13:10:54;;;;;;;2.03;0.70;;;;;;;;;;4907618;29;20085;-77
2022/04/03 13:13:29;;;;;;;2.35;1.08;;;;;;;;;;4908403;29;20389;-75
2022/04/03 13:15:57;;;;;;;3.92;0.70;;;;;;;;;;4903935;29;20067;-76
2022/04/03 13:18:23;;;;;;;4.90;0.90;;;;;;;;;;4906050;29;20048;-79
2022/04/03 13:20:51;;;;;;;5.38;1.00;;;;;;;;;;4905427;29;20083;-74
2022/04/03 13:23:18;;;;;;;1.73;0.80;;;;;;;;;;4905529;29;20044;-78
2022/04/03 13:25:45;;;;;;;2.83;1.00;;;;;;;;;;4904553;29;20056;-73
2022/04/03 13:28:11;;;;;;;2.78;0.90;;;;;;;;;;4908026;29;20517;-71
2022/04/03 13:30:37;;;;;;;1.48;0.70;;;;;;;;;;4908034;29;20063;-72
2022/04/03 13:33:04;;;;;;;1.52;0.60;;;;;;;;;;4906882;29;20052;-74
2022/04/03 13:35:30;;;;;;;3.58;0.70;;;;;;;;;;4904044;29;20434;-75
2022/04/03 13:37:56;;;;;;;3.45;1.35;;;;;;;;;;4906073;29;20066;-76
2022/04/03 13:40:22;;;;;;;3.08;0.90;;;;;;;;;;4907135;29;20056;-73
2022/04/03 13:42:48;;;;;;;6.32;0.88;;;;;;;;;;4905173;29;20699;-76
2022/04/03 13:45:15;;;;;;;4.43;0.90;;;;;;;;;;4905563;29;20051;-75
2022/04/03 13:47:41;;;;;;;2.40;0.80;;;;;;;;;;4902818;29;20563;-74
2022/04/03 13:50:07;;;;;;;2.80;0.77;;;;;;;;;;4905220;29;20617;-75
2022/04/03 13:52:35;;;;;;;1.75;0.70;;;;;;;;;;4906368;29;20055;-74
2022/04/03 13:55:01;;;;;;;4.00;0.95;;;;;;;;;;4903672;29;20111;-76
2022/04/03 13:57:26;;;;;;;3.50;0.95;;;;;;;;;;4902151;29;20052;-74
2022/04/03 13:59:56;;;;;;;2.17;0.90;;;;;;;;;;4900579;29;20447;-75
2022/04/03 14:02:22;;;;;;;1.50;0.70;;;;;;;;;;4905375;29;20060;-79
2022/04/03 14:04:48;;;;;;;1.25;0.77;;;;;;;;;;4905658;29;20659;-71
2022/04/03 14:07:14;;;;;;;2.08;0.82;;;;;;;;;;4902820;29;20064;-74
2022/04/03 14:09:39;;;;;;;2.10;0.90;;;;;;;;;;4906139;29;20052;-72
2022/04/03 14:12:07;;;;;;;5.07;1.20;;;;;;;;;;4905172;29;20513;-73
2022/04/03 14:14:33;;;;;;;6.57;1.80;;;;;;;;;;4904851;29;20040;-75
2022/04/03 14:16:58;;;;;;;1.90;0.70;;;;;;;;;;4903062;29;20156;-74
2022/04/03 14:19:24;;;;;;;2.33;0.90;;;;;;;;;;4904714;29;20052;-74
2022/04/03 14:21:51;;;;;;;1.60;0.80;;;;;;;;;;4905917;29;20067;-73
2022/04/03 14:24:16;;;;;;;1.98;0.90;;;;;;;;;;4897789;29;20048;-74
2022/04/03 14:26:45;;;;;;;2.97;0.95;;;;;;;;;;4902705;29;20052;-78
2022/04/03 14:29:11;;;;;;;5.80;1.50;;;;;;;;;;4903874;29;20063;-71
2022/04/03 14:31:37;;;;;;;2.85;1.52;;;;;;;;;;4904388;29;20139;-76
2022/04/03 14:34:03;;;;;;;4.25;1.17;;;;;;;;;;4904769;29;20051;-68
2022/04/03 14:36:29;;;;;;;1.73;0.60;;;;;;;;;;4902611;29;20524;-70
2022/04/03 14:38:55;;;;;;;1.17;0.68;;;;;;;;;;4902899;29;20439;-68
2022/04/03 14:41:21;;;;;;;4.45;0.80;;;;;;;;;;4899981;29;20147;-72
2022/04/03 14:43:47;;;;;;;2.15;0.60;;;;;;;;;;4902084;29;20067;-69
2022/04/03 14:46:13;;;;;;;6.18;0.90;;;;;;;;;;4899877;29;20052;-75
2022/04/03 14:48:39;;;;;;;4.05;0.75;;;;;;;;;;4902523;29;20279;-68
2022/04/03 14:51:05;;;;;;;3.05;0.73;;;;;;;;;;4886535;29;20124;-75
2022/04/03 14:53:31;;;;;;;2.35;1.02;;;;;;;;;;4902408;29;20090;-74